Flight Track Log - Related Links

Times and Time Zones

All times are in EST time to prevent confusion due to time zone crossing. See the FLG4262 flight status page for this flight to view local times or setup timezone preferences in your user account.


Time Position Orientation Groundspeed Altitude Reporting Facility
EST Latitude Longitude Course Direction KTS MPH feet Rate Location/Type
Thu 05:48:48 PM 42.1569 -76.0800 295° West 244 281 8,400  Level Cleveland Center
Thu 05:49:50 PM 42.1869 -76.1714 294° West 258 297 10,600 1,984 Climbing Cleveland Center
Thu 05:50:52 PM 42.2211 -76.2789 293° West 300 345 12,500 2,274 Climbing Cleveland Center
Thu 05:51:54 PM 42.2592 -76.4056 292° West 314 361 15,300 2,226 Climbing Cleveland Center
Thu 05:52:00 PM 42.2293 -76.6872 289° West  Level Estimated
Thu 05:52:56 PM 42.2942 -76.5128 294° West 313 360 17,100  Level Cleveland Center
Thu 05:53:59 PM 42.3275 -76.6247 292° West 320 368 18,100 1,008 Climbing Cleveland Center
Thu 05:55:01 PM 42.3628 -76.7406 292° West 331 381 19,200 1,113 Climbing Cleveland Center
Thu 05:56:03 PM 42.4008 -76.8628 293° West 348 400 20,400 1,210 Climbing Cleveland Center
Thu 05:57:05 PM 42.4383 -76.9853 293° West 352 405 21,700 1,258 Climbing Cleveland Center
Thu 05:58:07 PM 42.4842 -77.1350 293° West 358 412 23,000 1,210 Climbing Cleveland Center
Thu 05:59:09 PM 42.5219 -77.2611 292° West 362 417 24,200 1,258 Climbing Cleveland Center
Thu 06:00:11 PM 42.5592 -77.3825 293° West 355 409 25,600 871 Climbing Cleveland Center
Thu 06:01:13 PM 42.5978 -77.5139 292° West 353 406 26,000 194 Climbing Cleveland Center
Thu 06:02:15 PM 42.6347 -77.6400 292° West 356 410 26,000  Level Cleveland Center
Thu 06:03:17 PM 42.6744 -77.7703 293° West 366 421 26,000  Level Cleveland Center
Thu 06:04:19 PM 42.6906 -77.9167 279° West 382 440 26,000  Level Cleveland Center
Thu 06:05:21 PM 42.6933 -78.0642 272° West 390 449 26,000  Level Cleveland Center
Thu 06:06:23 PM 42.6956 -78.2433 271° West 396 456 26,000  Level Cleveland Center
Thu 06:07:25 PM 42.6972 -78.3914 271° West 394 453 26,000  Level Cleveland Center
Thu 06:08:28 PM 42.7000 -78.5361 272° West 388 447 26,000  Level Cleveland Center
Thu 06:09:30 PM 42.7011 -78.6822 271° West 386 444 26,000  Level Cleveland Center
Thu 06:10:32 PM 42.7031 -78.8269 271° West 385 443 26,000  Level Cleveland Center
Thu 06:11:34 PM 42.7042 -78.9594 271° West 354 407 26,000  Level Cleveland Center
Thu 06:12:36 PM 42.7069 -79.1092 271° West 330 380 26,000  Level Cleveland Center
Thu 06:13:38 PM 42.7075 -79.2311 270° West 323 372 26,000  Level Cleveland Center
Thu 06:14:40 PM 42.7081 -79.3503 270° West 317 365 26,000  Level Cleveland Center
Thu 06:15:42 PM 42.7094 -79.4672 271° West 312 359 26,000  Level Cleveland Center
Thu 06:16:44 PM 42.7089 -79.5850 270° West 312 359 26,000  Level Cleveland Center
Thu 06:17:46 PM 42.7092 -79.7014 270° West 310 357 26,000  Level Cleveland Center
Thu 06:18:48 PM 42.7094 -79.8419 270° West 310 357 26,000  Level Cleveland Center
Thu 06:19:50 PM 42.7094 -79.9583 270° West 309 356 26,000  Level Cleveland Center
Thu 06:20:52 PM 42.7081 -80.0769 269° West 309 356 26,000  Level Cleveland Center
Thu 06:21:54 PM 42.7089 -80.1942 271° West 306 352 26,000  Level Cleveland Center
Thu 06:22:56 PM 42.7089 -80.3097 270° West 306 352 26,000  Level Cleveland Center
Thu 06:23:59 PM 42.7083 -80.4286 270° West 306 352 26,000  Level Cleveland Center
Thu 06:25:01 PM 42.7081 -80.5464 270° West 308 354 26,000 -194 Level Cleveland Center
Thu 06:26:03 PM 42.7072 -80.6842 270° West 309 356 25,600 -677 Descending Cleveland Center
Thu 06:27:05 PM 42.7067 -80.8086 270° West 323 372 24,600 -774 Descending Cleveland Center
Thu 06:28:07 PM 42.7022 -80.9281 267° West 317 365 24,000 -290 Descending Cleveland Center
Thu 06:29:09 PM 42.6892 -81.0428 261° West 307 353 24,000  Level Cleveland Center
Thu 06:30:11 PM 42.6761 -81.1517 261° West 294 338 24,000  Level Cleveland Center
Thu 06:31:14 PM 42.6622 -81.2681 261° West 306 352 24,000 -387 Level Cleveland Center
Thu 06:32:15 PM 42.6489 -81.3839 261° West 306 352 23,200 -976 Descending Cleveland Center
Thu 06:33:17 PM 42.6339 -81.5147 261° West 300 345 22,000 -1,065 Descending Cleveland Center
Thu 06:34:19 PM 42.6211 -81.6217 261° West 290 334 21,000 -581 Descending Cleveland Center
Thu 06:35:21 PM 42.6089 -81.7264 261° West 282 325 20,800 -581 Descending Cleveland Center
Thu 06:36:23 PM 42.5967 -81.8283 261° West 281 323 19,800 -968 Descending Cleveland Center
Thu 06:37:25 PM 42.5842 -81.9281 260° West 271 312 18,800 -960 Descending Cleveland Center
Thu 06:38:28 PM 42.5711 -82.0353 261° West 282 325 17,800 -1,104 Descending Cleveland Center
Thu 06:39:30 PM 42.5547 -82.1728 261° West 304 350 16,500 -1,217 Descending Cleveland Center
Thu 06:39:37 PM 42.5511 -82.1925 256° West 309 356 16,400 -1,258 Descending Cleveland Center
Thu 06:40:32 PM 42.5397 -82.2850 261° West 306 352 15,200 -1,527 Descending Cleveland Center
Thu 06:41:27 PM 42.5272 -82.3906 261° West 291 335 13,600 -1,548 Descending Cleveland Center
Thu 06:41:34 PM 42.5267 -82.3925 249° West 296 341 13,600 -1,452 Level Cleveland Center
Thu 06:42:29 PM 42.5158 -82.4939 262° West 269 310 12,100 -1,452 Descending Cleveland Center
Thu 06:42:36 PM 42.5144 -82.4928 149° Southeast 279 321 12,100 -100 Level Cleveland Center
Thu 06:43:29 PM 42.4992 -82.5794 257° West 215 247 12,000 -97 Descending Cleveland Center
Thu 06:43:38 PM 42.4972 -82.5789 168° South 246 283 12,000 -871 Level Cleveland Center
Thu 06:44:31 PM 42.5208 -82.6586 292° West 210 242 11,100 -774 Descending Cleveland Center
Thu 06:44:40 PM 42.5189 -82.6522 112° Southeast 216 249 11,200 -358 Climbing Cleveland Center
Thu 06:45:38 PM 42.5300 -82.7361 280° West 204 235 10,700 -484 Descending Cleveland Center
Thu 06:45:42 PM 42.5289 -82.7378 228° Southwest 215 247 10,700 -982 Level Cleveland Center
Thu 06:46:33 PM 42.4839 -82.7642 203° Southwest 203 234 9,800 -968 Descending Cleveland Center
Thu 06:46:44 PM 42.4778 -82.7692 211° Southwest 203 234 9,700 -984 Descending Cleveland Center
Thu 06:47:34 PM 42.4356 -82.7972 206° Southwest 193 222 8,800 -968 Descending Cleveland Center
Thu 06:47:46 PM 42.4289 -82.7997 195° South 198 228 8,700 -982 Descending Cleveland Center
Thu 06:48:29 PM 42.3917 -82.8253 207° Southwest 187 215 7,900 -968 Descending Cleveland Center
Thu 06:48:48 PM 42.3889 -82.8381 254° West 192 221 7,700 -806 Descending Cleveland Center
Thu 06:49:36 PM 42.3839 -82.9006 264° West 182 209 7,000 -677 Descending Cleveland Center
Thu 06:49:50 PM 42.3836 -82.9050 265° West 179 206 7,000 -873 Level Cleveland Center
Thu 06:50:31 PM 42.3794 -82.9622 264° West 181 208 6,200 -871 Descending Cleveland Center
Thu 06:50:52 PM 42.3781 -82.9728 260° West 181 208 6,100 -197 Descending Cleveland Center
Thu 06:51:32 PM 42.4025 -83.0161 307° West 217 250 6,000 -97 Descending Cleveland Center
Thu 06:51:54 PM 42.4219 -83.0142 North 217 250 6,000  Level Cleveland Center
Thu 06:52:33 PM 42.4619 -83.0072 North 217 250 6,000  Level Cleveland Center
Thu 06:52:57 PM 42.4808 -83.0036 North 215 247 6,000  Level Cleveland Center
Thu 06:53:34 PM 42.5108 -83.0253 332° Northwest 174 200 6,000  Level Cleveland Center
Thu 06:53:59 PM 42.5181 -83.0403 303° West 190 219 6,000  Level Cleveland Center
Thu 06:54:41 PM 42.5314 -83.0847 292° West 155 178 6,000  Level Cleveland Center
Thu 06:55:01 PM 42.5283 -83.0922 241° Southwest 173 199 6,000  Level Cleveland Center
Thu 06:55:42 PM 42.4992 -83.1256 220° Southwest 166 191 6,000  Level Cleveland Center
Thu 06:56:03 PM 42.4961 -83.1286 216° Southwest 158 182 6,000  Level Cleveland Center
Thu 06:56:43 PM 42.4614 -83.1542 209° Southwest 160 184 6,000  Level Cleveland Center
Thu 06:57:05 PM 42.4492 -83.1642 211° Southwest 161 185 6,000 -590 Level Cleveland Center
Thu 06:57:44 PM 42.4211 -83.1856 209° Southwest 163 188 5,400 -871 Descending Cleveland Center
Thu 06:58:07 PM 42.4097 -83.1931 206° Southwest 161 185 5,100 -896 Descending Cleveland Center
Thu 06:58:51 PM 42.3792 -83.2164 209° Southwest 149 171 4,400 -871 Descending Cleveland Center
Thu 06:59:09 PM 42.3719 -83.2211 206° Southwest 157 181 4,200 -787 Descending Cleveland Center
Thu 06:59:52 PM 42.3411 -83.2450 210° Southwest 151 174 3,600 -774 Descending Cleveland Center
Thu 07:00:11 PM 42.3353 -83.2492 208° Southwest 152 175 3,400 -857 Descending Cleveland Center
Thu 07:00:41 PM 42.3103 -83.2661 207° Southwest 150 173 2,900 -871 Descending Cleveland Center
Thu 07:01:13 PM 42.2983 -83.2758 211° Southwest 150 173 2,500 -787 Descending Cleveland Center
Thu 07:01:42 PM 42.2769 -83.2925 210° Southwest 130 150 2,100 -677 Descending Cleveland Center
Thu 07:02:15 PM 42.2658 -83.3008 209° Southwest 142 163 1,800 -689 Descending Cleveland Center
Thu 07:02:43 PM 42.2481 -83.3139 209° Southwest 117 135 1,400 -677 Descending Cleveland Center
Thu 07:03:17 PM 42.2375 -83.3217 209° Southwest 127 146 1,100 -529 Descending Cleveland Center
Thu 07:05:00 PM 42.2124 -83.3534 236° Southwest  Level Estimated
Thu 07:12:00 PM 42.2124 -83.3534 236° Southwest  Level Estimated
Thu 07:13:00 PM 42.2124 -83.3534 236° Southwest  Level Estimated
Thu 07:14:00 PM 42.2124 -83.3534 236° Southwest  Level Estimated
Thu 07:15:00 PM 42.2124 -83.3534 236° Southwest  Level Estimated
Thu 07:16:00 PM 42.2124 -83.3534 236° Southwest  Level Estimated
Thu 07:17:00 PM 42.2124 -83.3534 236° Southwest  Level Estimated

Login

Don't have an account? Register now (free) for customized features, flight alerts, and more!